createdAt,value
2022-09-20T00:01:18.028Z,3.97
2022-09-20T00:03:46.433Z,3.63
2022-09-20T00:06:16.328Z,3.60
2022-09-20T00:08:44.500Z,2.85
2022-09-20T00:11:15.485Z,3.38
2022-09-20T00:13:44.325Z,3.13
2022-09-20T00:16:15.926Z,3.20
2022-09-20T00:18:42.776Z,3.55
2022-09-20T00:21:17.125Z,3.65
2022-09-20T00:23:44.241Z,2.88
2022-09-20T00:26:11.256Z,3.35
2022-09-20T00:28:37.801Z,2.35
2022-09-20T00:31:04.927Z,3.63
2022-09-20T00:33:50.216Z,2.53
2022-09-20T00:36:16.736Z,3.28
2022-09-20T00:38:43.292Z,3.17
2022-09-20T00:41:10.301Z,2.78
2022-09-20T00:43:45.639Z,2.53
2022-09-20T00:46:27.361Z,3.13
2022-09-20T00:48:59.461Z,3.08
2022-09-20T00:51:29.908Z,3.75
2022-09-20T00:53:59.183Z,3.42
2022-09-20T00:56:31.279Z,3.33
2022-09-20T00:59:27.107Z,2.78
2022-09-20T01:02:03.157Z,3.47
2022-09-20T01:04:30.388Z,3.65
2022-09-20T01:07:01.902Z,3.80
2022-09-20T01:09:28.678Z,2.65
2022-09-20T01:11:57.702Z,2.50
2022-09-20T01:14:26.509Z,3.03
2022-09-20T01:16:56.155Z,3.45
2022-09-20T01:19:37.882Z,3.35
2022-09-20T01:22:14.038Z,3.03
2022-09-20T01:25:00.443Z,3.45
2022-09-20T01:30:13.526Z,3.72
2022-09-20T01:32:54.767Z,3.53
2022-09-20T01:35:25.453Z,3.63
2022-09-20T01:38:13.812Z,3.75
2022-09-20T01:40:56.610Z,4.10
2022-09-20T01:43:35.744Z,3.42
2022-09-20T01:46:32.476Z,4.30
2022-09-20T01:49:37.740Z,4.03
2022-09-20T01:52:41.592Z,3.47
2022-09-20T01:55:42.186Z,4.03
2022-09-20T01:58:33.351Z,4.13
2022-09-20T02:01:05.894Z,4.10
2022-09-20T02:03:54.049Z,3.38
2022-09-20T02:06:47.516Z,3.08
2022-09-20T02:09:32.688Z,4.50
2022-09-20T02:12:34.217Z,3.78
2022-09-20T02:15:03.464Z,3.50
2022-09-20T02:17:38.889Z,4.10
2022-09-20T02:20:09.126Z,3.85
2022-09-20T02:22:56.293Z,4.32
2022-09-20T02:25:31.198Z,3.90
2022-09-20T02:28:06.575Z,4.35
2022-09-20T02:30:57.913Z,3.50
2022-09-20T02:33:43.151Z,3.58
2022-09-20T02:36:37.473Z,3.67
2022-09-20T02:39:20.648Z,3.83
2022-09-20T02:41:55.644Z,3.78
2022-09-20T02:44:38.778Z,4.15
2022-09-20T02:47:33.109Z,3.05
2022-09-20T02:50:05.693Z,2.95
2022-09-20T02:52:43.202Z,5.10
2022-09-20T02:55:49.070Z,3.45
2022-09-20T02:58:18.135Z,3.50
2022-09-20T03:00:54.234Z,3.10
2022-09-20T03:03:29.659Z,2.97
2022-09-20T03:06:35.386Z,4.50
2022-09-20T03:09:18.380Z,3.33
2022-09-20T03:12:03.452Z,4.20
2022-09-20T03:14:37.627Z,2.50
2022-09-20T03:17:36.490Z,3.28
2022-09-20T03:20:25.352Z,3.40
2022-09-20T03:23:05.112Z,3.28
2022-09-20T03:25:43.524Z,3.97
2022-09-20T03:28:34.954Z,3.47
2022-09-20T03:31:07.458Z,3.55
2022-09-20T03:33:47.877Z,2.97
2022-09-20T03:36:51.953Z,2.92
2022-09-20T03:39:54.001Z,4.05
2022-09-20T03:42:25.592Z,3.38
2022-09-20T03:45:11.245Z,3.08
2022-09-20T03:48:08.072Z,3.88
2022-09-20T03:53:26.011Z,3.28
2022-09-20T03:56:20.052Z,3.35
2022-09-20T03:59:18.237Z,3.45
2022-09-20T04:01:59.929Z,3.88
2022-09-20T04:04:52.797Z,3.47
2022-09-20T04:07:26.857Z,2.90
2022-09-20T04:10:02.265Z,3.78
2022-09-20T04:12:56.855Z,3.15
2022-09-20T04:15:37.282Z,3.22
2022-09-20T04:18:28.181Z,3.80
2022-09-20T04:21:05.676Z,4.00
2022-09-20T04:23:43.171Z,3.63
2022-09-20T04:26:10.989Z,3.17
2022-09-20T04:28:47.559Z,3.92
2022-09-20T04:31:43.567Z,3.88
2022-09-20T04:34:51.977Z,4.03
2022-09-20T04:37:38.428Z,3.85
2022-09-20T04:43:27.459Z,3.25
2022-09-20T04:46:06.852Z,3.55
2022-09-20T04:48:51.966Z,3.17
2022-09-20T04:51:37.233Z,3.42
2022-09-20T04:54:15.875Z,3.58
2022-09-20T04:56:42.373Z,3.35
2022-09-20T04:59:10.391Z,3.83
2022-09-20T05:02:30.854Z,4.70
2022-09-20T05:05:42.229Z,4.32
2022-09-20T05:08:29.965Z,3.70
2022-09-20T05:11:14.951Z,3.38
2022-09-20T05:14:05.119Z,4.45
2022-09-20T05:16:58.800Z,4.90
2022-09-20T05:19:26.233Z,3.42
2022-09-20T05:22:46.693Z,4.53
2022-09-20T05:25:52.068Z,5.18
2022-09-20T05:29:01.626Z,4.57
2022-09-20T05:31:40.923Z,4.07
2022-09-20T05:34:33.546Z,4.80
2022-09-20T05:37:24.464Z,4.32
2022-09-20T05:40:19.116Z,4.05
2022-09-20T05:43:11.325Z,5.13
2022-09-20T05:45:57.891Z,5.15
2022-09-20T05:48:49.934Z,4.75
2022-09-20T05:51:34.729Z,3.30
2022-09-20T05:54:36.884Z,3.75
2022-09-20T05:57:27.970Z,4.57
2022-09-20T06:00:00.248Z,4.07
2022-09-20T06:03:04.393Z,4.18
2022-09-20T06:05:49.082Z,4.63
2022-09-20T06:08:44.606Z,4.43
2022-09-20T06:11:33.106Z,5.40
2022-09-20T06:14:17.884Z,3.97
2022-09-20T06:17:03.105Z,6.35
2022-09-20T06:20:02.784Z,6.30
2022-09-20T06:22:42.903Z,5.07
2022-09-20T06:25:09.380Z,5.97
2022-09-20T06:27:45.040Z,5.60
2022-09-20T06:30:30.074Z,7.90
2022-09-20T06:33:13.180Z,6.90
2022-09-20T06:36:23.229Z,4.43
2022-09-20T06:39:22.639Z,5.57
2022-09-20T06:41:49.613Z,3.67
2022-09-20T06:44:16.149Z,3.45
2022-09-20T06:46:42.773Z,4.78
2022-09-20T06:49:09.575Z,3.78
2022-09-20T06:51:38.761Z,4.82
2022-09-20T06:54:11.388Z,3.92
2022-09-20T06:56:38.444Z,3.50
2022-09-20T06:59:08.634Z,3.80
2022-09-20T07:01:35.321Z,4.13
2022-09-20T07:04:02.924Z,4.50
2022-09-20T07:06:29.504Z,3.67
2022-09-20T07:08:56.113Z,4.25
2022-09-20T07:11:23.485Z,4.20
2022-09-20T07:13:52.072Z,4.78
2022-09-20T07:16:18.812Z,4.55
2022-09-20T07:18:45.915Z,4.05
2022-09-20T07:21:18.023Z,4.07
2022-09-20T07:23:51.422Z,3.92
2022-09-20T07:26:25.789Z,4.20
2022-09-20T07:28:53.191Z,3.78
2022-09-20T07:31:22.929Z,4.82
2022-09-20T07:33:49.638Z,3.63
2022-09-20T07:36:16.718Z,4.75
2022-09-20T07:38:50.493Z,3.72
2022-09-20T07:41:19.093Z,4.13
2022-09-20T07:43:46.651Z,4.30
2022-09-20T07:46:15.940Z,4.18
2022-09-20T07:48:42.740Z,4.68
2022-09-20T07:51:13.891Z,4.18
2022-09-20T07:53:41.209Z,4.20
2022-09-20T07:56:15.828Z,5.15
2022-09-20T07:58:43.243Z,5.28
2022-09-20T08:01:12.645Z,6.05
2022-09-20T08:03:40.541Z,5.53
2022-09-20T08:06:15.092Z,4.70
2022-09-20T08:08:42.344Z,4.28
2022-09-20T08:11:22.371Z,4.63
2022-09-20T08:14:07.709Z,5.28
2022-09-20T08:16:40.775Z,3.90
2022-09-20T08:19:07.498Z,3.53
2022-09-20T08:21:35.897Z,4.30
2022-09-20T08:24:03.973Z,4.60
2022-09-20T08:26:35.798Z,6.00
2022-09-20T08:29:02.812Z,4.30
2022-09-20T08:31:34.283Z,4.97
2022-09-20T08:34:03.766Z,3.80
2022-09-20T08:36:36.362Z,5.10
2022-09-20T08:42:12.897Z,4.55
2022-09-20T08:44:59.994Z,3.90
2022-09-20T08:47:36.610Z,4.82
2022-09-20T08:50:09.529Z,4.75
2022-09-20T08:52:39.859Z,4.47
2022-09-20T08:55:36.557Z,4.03
2022-09-20T08:58:08.130Z,3.55
2022-09-20T09:00:37.171Z,4.93
2022-09-20T09:03:12.258Z,3.78
2022-09-20T09:05:44.382Z,3.70
2022-09-20T09:08:16.871Z,3.63
2022-09-20T09:10:56.419Z,3.50
2022-09-20T09:13:34.322Z,4.70
2022-09-20T09:16:06.510Z,5.35
2022-09-20T09:18:39.452Z,5.30
2022-09-20T09:21:07.778Z,5.93
2022-09-20T09:23:47.735Z,6.38
2022-09-20T09:26:21.292Z,5.45
2022-09-20T09:29:07.461Z,5.88
2022-09-20T09:31:34.228Z,7.90
2022-09-20T09:34:01.024Z,7.28
2022-09-20T09:36:27.850Z,8.00
2022-09-20T09:39:16.397Z,6.63
2022-09-20T09:41:43.287Z,6.97
2022-09-20T09:44:20.704Z,6.68
2022-09-20T09:46:47.866Z,6.30
2022-09-20T09:49:24.735Z,8.25
2022-09-20T09:52:16.135Z,8.52
2022-09-20T09:54:51.445Z,7.03
2022-09-20T09:57:36.577Z,8.02
2022-09-20T10:00:21.564Z,8.00
2022-09-20T10:03:04.002Z,8.18
2022-09-20T10:06:06.942Z,7.22
2022-09-20T10:08:58.087Z,6.63
2022-09-20T10:11:37.971Z,8.15
2022-09-20T10:14:28.305Z,6.53
2022-09-20T10:17:10.050Z,6.30
2022-09-20T10:19:40.511Z,6.45
2022-09-20T10:22:24.584Z,5.60
2022-09-20T10:25:32.115Z,6.72
2022-09-20T10:28:24.571Z,4.45
2022-09-20T10:30:56.946Z,5.28
2022-09-20T10:33:37.558Z,5.35
2022-09-20T10:36:32.309Z,6.57
2022-09-20T10:39:22.773Z,6.03
2022-09-20T10:42:26.028Z,5.88
2022-09-20T10:45:11.578Z,6.10
2022-09-20T10:48:18.423Z,6.03
2022-09-20T10:50:52.308Z,4.97
2022-09-20T10:53:37.343Z,5.68
2022-09-20T10:56:24.020Z,6.65
2022-09-20T10:58:56.847Z,6.07
2022-09-20T11:01:31.168Z,5.47
2022-09-20T11:04:09.737Z,5.85
2022-09-20T11:06:51.736Z,5.10
2022-09-20T11:09:23.351Z,5.80
2022-09-20T11:11:55.953Z,7.32
2022-09-20T11:14:33.417Z,7.25
2022-09-20T11:17:17.342Z,6.68
2022-09-20T11:19:51.497Z,6.18
2022-09-20T11:22:32.649Z,6.45
2022-09-20T11:25:20.401Z,6.20
2022-09-20T11:28:00.963Z,6.18
2022-09-20T11:30:30.236Z,7.05
2022-09-20T11:33:21.696Z,7.30
2022-09-20T11:35:51.704Z,8.30
2022-09-20T11:38:25.095Z,6.60
2022-09-20T11:41:28.338Z,6.93
2022-09-20T11:44:12.180Z,7.28
2022-09-20T11:46:45.185Z,7.18
2022-09-20T11:49:19.793Z,7.43
2022-09-20T11:52:05.258Z,7.90
2022-09-20T11:54:37.801Z,8.07
2022-09-20T11:57:05.979Z,6.97
2022-09-20T11:59:33.974Z,7.80
2022-09-20T12:02:04.347Z,6.63
2022-09-20T12:04:35.665Z,7.78
2022-09-20T12:07:18.270Z,7.82
2022-09-20T12:10:01.291Z,6.22
2022-09-20T12:12:45.299Z,7.20
2022-09-20T12:15:27.054Z,6.07
2022-09-20T12:17:53.562Z,5.82
2022-09-20T12:20:35.050Z,6.88
2022-09-20T12:23:42.582Z,6.55
2022-09-20T12:26:36.895Z,6.30
2022-09-20T12:29:23.629Z,6.18
2022-09-20T12:31:52.471Z,5.65
2022-09-20T12:34:18.950Z,4.65
2022-09-20T12:36:54.250Z,5.28
2022-09-20T12:39:30.048Z,4.80
2022-09-20T12:42:03.639Z,5.57
2022-09-20T12:44:48.874Z,5.38
2022-09-20T12:47:26.912Z,3.45
2022-09-20T12:50:15.357Z,4.75
2022-09-20T12:52:50.800Z,3.78
2022-09-20T12:55:41.099Z,4.80
2022-09-20T12:58:19.783Z,3.60
2022-09-20T13:00:48.975Z,4.35
2022-09-20T13:03:15.492Z,3.47
2022-09-20T13:05:46.749Z,3.58
2022-09-20T13:08:27.298Z,3.50
2022-09-20T13:11:09.424Z,3.95
2022-09-20T13:13:44.290Z,3.40
2022-09-20T13:16:34.215Z,3.53
2022-09-20T13:19:07.950Z,4.85
2022-09-20T13:21:38.455Z,4.13
2022-09-20T13:24:06.350Z,3.75
2022-09-20T13:26:47.030Z,3.75
2022-09-20T13:29:29.290Z,2.88
2022-09-20T13:31:56.497Z,3.75
2022-09-20T13:34:25.049Z,3.75
2022-09-20T13:36:58.246Z,3.45
2022-09-20T13:39:29.619Z,3.45
2022-09-20T13:42:07.017Z,5.20
2022-09-20T13:44:34.851Z,4.68
2022-09-20T13:47:01.686Z,4.05
2022-09-20T13:49:32.582Z,4.25
2022-09-20T13:51:59.534Z,3.92
2022-09-20T13:54:27.612Z,4.68
2022-09-20T13:57:03.676Z,4.38
2022-09-20T13:59:35.208Z,4.60
2022-09-20T14:02:02.896Z,4.60
2022-09-20T14:04:31.456Z,4.85
2022-09-20T14:07:00.603Z,4.60
2022-09-20T14:09:32.876Z,4.13
2022-09-20T14:12:00.638Z,4.93
2022-09-20T14:14:27.927Z,5.22
2022-09-20T14:16:57.429Z,5.10
2022-09-20T14:19:32.888Z,5.68
2022-09-20T14:22:03.937Z,6.47
2022-09-20T14:24:37.085Z,5.93
2022-09-20T14:27:17.130Z,5.28
2022-09-20T14:29:46.274Z,5.13
2022-09-20T14:32:18.882Z,4.80
2022-09-20T14:35:00.647Z,5.30
2022-09-20T14:37:42.438Z,4.68
2022-09-20T14:40:30.455Z,5.15
2022-09-20T14:43:05.232Z,4.65
2022-09-20T14:45:33.352Z,5.70
2022-09-20T14:48:09.372Z,4.68
2022-09-20T14:50:43.393Z,5.20
2022-09-20T14:53:10.762Z,4.25
2022-09-20T14:55:54.507Z,4.03
2022-09-20T14:58:21.042Z,3.83
2022-09-20T15:00:54.119Z,3.70
2022-09-20T15:03:27.612Z,4.15
2022-09-20T15:05:54.278Z,4.68
2022-09-20T15:08:20.864Z,4.03
2022-09-20T15:10:47.918Z,3.17
2022-09-20T15:13:14.958Z,3.35
2022-09-20T15:15:44.209Z,4.47
2022-09-20T15:18:22.866Z,3.78
2022-09-20T15:20:53.286Z,3.92
2022-09-20T15:23:20.433Z,4.00
2022-09-20T15:25:50.778Z,3.95
2022-09-20T15:28:17.449Z,3.92
2022-09-20T15:30:45.737Z,4.65
2022-09-20T15:33:13.221Z,3.55
2022-09-20T15:35:41.685Z,3.88
2022-09-20T15:38:11.638Z,4.70
2022-09-20T15:40:42.794Z,3.75
2022-09-20T15:43:13.300Z,5.13
2022-09-20T15:45:50.935Z,3.42
2022-09-20T15:48:22.207Z,4.75
2022-09-20T15:51:08.735Z,4.78
2022-09-20T15:53:38.547Z,4.65
2022-09-20T15:56:19.322Z,3.95
2022-09-20T15:58:48.407Z,4.65
2022-09-20T16:01:18.652Z,5.25
2022-09-20T16:03:46.530Z,3.22
2022-09-20T16:06:13.822Z,4.95
2022-09-20T16:08:42.516Z,4.63
2022-09-20T16:11:13.806Z,5.30
2022-09-20T16:13:40.721Z,4.05
2022-09-20T16:16:10.137Z,4.15
2022-09-20T16:18:55.612Z,4.95
2022-09-20T16:21:22.530Z,4.18
2022-09-20T16:23:56.803Z,4.28
2022-09-20T16:26:25.868Z,4.22
2022-09-20T16:28:54.356Z,5.07
2022-09-20T16:31:50.035Z,4.32
2022-09-20T16:34:19.435Z,5.10
2022-09-20T16:36:47.571Z,4.47
2022-09-20T16:39:15.488Z,5.88
2022-09-20T16:41:43.549Z,4.88
2022-09-20T16:44:10.110Z,4.75
2022-09-20T16:46:37.400Z,4.72
2022-09-20T16:49:06.343Z,5.95
2022-09-20T16:51:35.793Z,4.43
2022-09-20T16:54:09.687Z,5.47
2022-09-20T16:56:36.404Z,4.82
2022-09-20T16:59:04.929Z,6.15
2022-09-20T17:01:32.054Z,6.00
2022-09-20T17:03:58.982Z,6.07
2022-09-20T17:06:26.808Z,5.10
2022-09-20T17:08:58.856Z,5.32
2022-09-20T17:11:28.115Z,5.55
2022-09-20T17:13:55.762Z,5.40
2022-09-20T17:16:30.422Z,4.50
2022-09-20T17:19:01.028Z,4.72
2022-09-20T17:21:29.959Z,5.07
2022-09-20T17:23:58.738Z,5.53
2022-09-20T17:26:26.485Z,5.05
2022-09-20T17:28:56.309Z,4.55
2022-09-20T17:31:28.565Z,5.68
2022-09-20T17:33:55.774Z,4.60
2022-09-20T17:36:22.405Z,4.75
2022-09-20T17:38:54.268Z,4.63
2022-09-20T17:41:21.902Z,4.22
2022-09-20T17:43:52.354Z,4.28
2022-09-20T17:46:22.905Z,4.70
2022-09-20T17:48:54.344Z,5.07
2022-09-20T17:51:22.460Z,5.10
2022-09-20T17:53:49.071Z,6.68
2022-09-20T17:56:15.827Z,5.50
2022-09-20T17:58:42.403Z,5.10
2022-09-20T18:01:15.167Z,5.32
2022-09-20T18:03:45.384Z,5.72
2022-09-20T18:06:30.130Z,5.15
2022-09-20T18:09:02.511Z,5.60
2022-09-20T18:11:34.172Z,4.88
2022-09-20T18:14:02.999Z,5.43
2022-09-20T18:16:31.171Z,4.75
2022-09-20T18:18:59.888Z,5.55
2022-09-20T18:21:28.705Z,5.55
2022-09-20T18:23:56.002Z,5.10
2022-09-20T18:26:24.967Z,6.13
2022-09-20T18:29:01.450Z,5.18
2022-09-20T18:31:35.973Z,5.05
2022-09-20T18:34:05.503Z,5.10
2022-09-20T18:36:34.100Z,6.10
2022-09-20T18:39:00.699Z,6.20
2022-09-20T18:41:36.744Z,4.28
2022-09-20T18:44:07.172Z,5.95
2022-09-20T18:46:37.978Z,5.38
2022-09-20T18:49:08.677Z,4.65
2022-09-20T18:51:39.709Z,4.40
2022-09-20T18:54:10.026Z,5.22
2022-09-20T18:56:39.420Z,5.13
2022-09-20T18:59:08.517Z,5.43
2022-09-20T19:01:44.372Z,4.53
2022-09-20T19:07:16.084Z,4.10
2022-09-20T19:09:53.285Z,5.25
2022-09-20T19:12:31.849Z,5.15
2022-09-20T19:15:35.802Z,4.30
2022-09-20T19:18:27.445Z,4.55
2022-09-20T19:21:03.057Z,3.75
2022-09-20T19:24:10.994Z,4.45
2022-09-20T19:26:38.635Z,3.38
2022-09-20T19:29:18.964Z,4.18
2022-09-20T19:31:48.477Z,4.75
2022-09-20T19:34:23.892Z,4.05
2022-09-20T19:37:02.532Z,3.75
2022-09-20T19:39:48.024Z,4.03
2022-09-20T19:42:33.436Z,5.27
2022-09-20T19:45:09.080Z,4.78
2022-09-20T19:47:57.041Z,3.78
2022-09-20T19:50:33.187Z,3.85
2022-09-20T19:53:03.955Z,4.60
2022-09-20T19:55:32.181Z,4.15
2022-09-20T19:57:59.114Z,4.05
2022-09-20T20:00:26.186Z,3.42
2022-09-20T20:02:53.949Z,4.05
2022-09-20T20:05:27.707Z,3.72
2022-09-20T20:08:16.169Z,4.32
2022-09-20T20:11:09.750Z,4.30
2022-09-20T20:14:04.453Z,4.53
2022-09-20T20:16:52.369Z,4.13
2022-09-20T20:19:40.749Z,3.92
2022-09-20T20:22:31.742Z,4.03
2022-09-20T20:24:58.377Z,4.88
2022-09-20T20:27:28.423Z,3.17
2022-09-20T20:29:55.907Z,5.25
2022-09-20T20:32:22.998Z,3.00
2022-09-20T20:34:49.555Z,2.88
2022-09-20T20:37:18.233Z,2.83
2022-09-20T20:39:44.819Z,3.15
2022-09-20T20:42:12.825Z,2.92
2022-09-20T20:44:40.068Z,3.53
2022-09-20T20:47:07.140Z,3.75
2022-09-20T20:49:33.820Z,3.47
2022-09-20T20:52:04.768Z,2.95
2022-09-20T20:54:32.273Z,4.18
2022-09-20T20:56:59.442Z,3.40
2022-09-20T20:59:26.425Z,2.58
2022-09-20T21:01:53.025Z,3.22
2022-09-20T21:04:19.980Z,4.05
2022-09-20T21:06:46.695Z,3.03
2022-09-20T21:09:13.533Z,3.90
2022-09-20T21:11:44.690Z,3.17
2022-09-20T21:14:12.542Z,4.05
2022-09-20T21:16:45.045Z,2.45
2022-09-20T21:19:15.658Z,2.90
2022-09-20T21:21:43.825Z,2.78
2022-09-20T21:24:12.850Z,3.60
2022-09-20T21:26:40.207Z,3.22
2022-09-20T21:29:10.924Z,3.20
2022-09-20T21:31:43.059Z,3.08
2022-09-20T21:34:12.625Z,2.83
2022-09-20T21:36:43.963Z,2.95
2022-09-20T21:39:10.687Z,3.15
2022-09-20T21:41:38.549Z,2.85
2022-09-20T21:44:06.616Z,2.38
2022-09-20T21:46:35.354Z,3.75
2022-09-20T21:49:04.063Z,2.70
2022-09-20T21:51:31.799Z,2.75
2022-09-20T21:54:01.459Z,2.72
2022-09-20T21:56:32.890Z,2.33
2022-09-20T21:59:01.990Z,2.70
2022-09-20T22:01:29.393Z,3.17
2022-09-20T22:03:59.144Z,2.13
2022-09-20T22:06:28.566Z,2.58
2022-09-20T22:09:03.826Z,2.40
2022-09-20T22:11:32.853Z,2.78
2022-09-20T22:14:00.162Z,2.20
2022-09-20T22:16:29.518Z,2.45
2022-09-20T22:18:56.145Z,1.95
2022-09-20T22:21:31.378Z,2.38
2022-09-20T22:24:00.769Z,2.17
2022-09-20T22:26:39.096Z,1.95
2022-09-20T22:29:06.566Z,2.63
2022-09-20T22:31:36.218Z,2.78
2022-09-20T22:34:05.240Z,2.38
2022-09-20T22:36:37.733Z,1.75
2022-09-20T22:39:07.520Z,2.10
2022-09-20T22:41:34.781Z,2.45
2022-09-20T22:44:01.513Z,1.90
2022-09-20T22:46:30.023Z,1.65
2022-09-20T22:48:56.864Z,2.10
2022-09-20T22:51:33.216Z,2.15
2022-09-20T22:54:03.878Z,2.60
2022-09-20T22:56:31.204Z,2.20
2022-09-20T22:59:00.593Z,1.80
2022-09-20T23:01:29.658Z,2.00
2022-09-20T23:04:07.671Z,2.47
2022-09-20T23:06:49.234Z,1.90
2022-09-20T23:09:18.009Z,1.98
2022-09-20T23:11:45.064Z,2.30
2022-09-20T23:14:14.179Z,2.25
2022-09-20T23:16:41.085Z,2.28
2022-09-20T23:19:08.724Z,2.25
2022-09-20T23:21:37.419Z,1.98
2022-09-20T23:24:06.500Z,1.73
2022-09-20T23:26:34.498Z,2.33
2022-09-20T23:29:09.334Z,2.08
2022-09-20T23:31:37.687Z,2.20
2022-09-20T23:34:06.085Z,1.98
2022-09-20T23:36:35.150Z,2.40
2022-09-20T23:39:01.728Z,1.50
2022-09-20T23:41:29.107Z,1.83
2022-09-20T23:43:55.922Z,2.13
2022-09-20T23:46:23.955Z,1.95
2022-09-20T23:48:51.086Z,3.00
2022-09-20T23:51:23.422Z,1.40
2022-09-20T23:53:51.777Z,1.90
2022-09-20T23:56:19.774Z,1.52
2022-09-20T23:58:46.406Z,2.28
